Time,TemperatureF,DewpointF,PressureIn,WindDirection,WindDirectionDegrees,WindSpeedMPH,WindSpeedGustMPH,Humidity,HourlyPrecipIn,Conditions,Clouds,dailyrainin,SoftwareType,DateUTC
2013-04-12 00:04:00,40.1,27.3,29.86,NE,45,0.0,0.0,60,0.00,,,0.04,wxRedirect v1.1,2013-04-12 05:04:00,
2013-04-12 00:09:00,39.9,27.1,29.86,NE,45,0.0,0.0,60,0.00,,,0.04,wxRedirect v1.1,2013-04-12 05:09:00,
2013-04-12 00:15:00,39.9,27.1,29.86,NE,45,0.0,0.0,60,0.00,,,0.04,wxRedirect v1.1,2013-04-12 05:15:00,
2013-04-12 00:20:00,39.7,27.0,29.86,NE,45,0.0,0.0,60,0.00,,,0.04,wxRedirect v1.1,2013-04-12 05:20:00,
2013-04-12 00:25:00,39.6,26.8,29.87,NE,45,0.0,0.0,60,0.00,,,0.04,wxRedirect v1.1,2013-04-12 05:25:00,
2013-04-12 00:31:00,39.4,26.6,29.87,NE,45,0.0,0.0,60,0.00,,,0.04,wxRedirect v1.1,2013-04-12 05:31:00,
2013-04-12 00:36:00,39.4,26.6,29.87,NE,45,0.0,0.0,60,0.00,,,0.04,wxRedirect v1.1,2013-04-12 05:36:00,
2013-04-12 00:41:00,39.0,26.3,29.87,NE,45,0.0,0.0,60,0.00,,,0.04,wxRedirect v1.1,2013-04-12 05:41:00,
2013-04-12 00:47:00,39.0,26.3,29.87,NNE,22,0.0,0.0,60,0.00,,,0.04,wxRedirect v1.1,2013-04-12 05:47:00,
2013-04-12 00:52:00,38.8,26.1,29.87,NNE,22,0.0,0.0,60,0.00,,,0.04,wxRedirect v1.1,2013-04-12 05:52:00,
2013-04-12 00:57:00,38.8,26.1,29.87,NNE,22,1.6,2.0,60,0.00,,,0.04,wxRedirect v1.1,2013-04-12 05:57:00,
2013-04-12 01:02:00,38.8,26.1,29.87,NNE,22,2.0,2.0,60,0.00,,,0.04,wxRedirect v1.1,2013-04-12 06:02:00,
2013-04-12 01:08:00,38.8,26.1,29.88,NNE,22,0.0,2.0,60,0.00,,,0.04,wxRedirect v1.1,2013-04-12 06:08:00,
2013-04-12 01:13:00,38.8,26.1,29.88,NNE,22,0.0,0.0,60,0.00,,,0.04,wxRedirect v1.1,2013-04-12 06:13:00,
2013-04-12 01:18:00,38.5,25.8,29.87,NNE,22,0.0,0.0,60,0.00,,,0.04,wxRedirect v1.1,2013-04-12 06:18:00,
2013-04-12 01:24:00,38.3,25.6,29.88,NNE,22,0.0,0.0,60,0.00,,,0.04,wxRedirect v1.1,2013-04-12 06:24:00,
2013-04-12 01:29:00,38.3,25.6,29.88,NNE,22,0.0,0.0,60,0.00,,,0.04,wxRedirect v1.1,2013-04-12 06:29:00,
2013-04-12 01:35:00,38.1,25.8,29.88,NNE,22,0.0,0.0,61,0.00,,,0.04,wxRedirect v1.1,2013-04-12 06:35:00,
2013-04-12 01:40:00,37.9,25.7,29.87,NNE,22,0.0,0.0,61,0.00,,,0.04,wxRedirect v1.1,2013-04-12 06:40:00,
2013-04-12 01:45:00,37.9,25.7,29.88,NNE,22,0.0,0.0,61,0.00,,,0.04,wxRedirect v1.1,2013-04-12 06:45:00,
2013-04-12 01:50:00,37.8,25.5,29.87,NNE,22,0.0,0.0,61,0.00,,,0.04,wxRedirect v1.1,2013-04-12 06:50:00,
2013-04-12 01:56:00,37.6,25.3,29.88,NNE,22,0.0,0.0,61,0.00,,,0.04,wxRedirect v1.1,2013-04-12 06:56:00,
2013-04-12 02:02:00,37.6,25.3,29.88,NNE,22,0.0,0.0,61,0.00,,,0.04,wxRedirect v1.1,2013-04-12 07:02:00,
2013-04-12 02:07:00,37.2,25.0,29.88,NNE,22,0.0,0.0,61,0.00,,,0.04,wxRedirect v1.1,2013-04-12 07:07:00,
2013-04-12 02:12:00,37.2,25.4,29.88,NNE,22,0.0,0.0,62,0.00,,,0.04,wxRedirect v1.1,2013-04-12 07:12:00,
2013-04-12 02:18:00,37.0,25.2,29.89,NNE,22,0.0,0.0,62,0.00,,,0.04,wxRedirect v1.1,2013-04-12 07:18:00,
2013-04-12 02:23:00,36.7,24.9,29.89,NNE,22,0.0,0.0,62,0.00,,,0.04,wxRedirect v1.1,2013-04-12 07:23:00,
2013-04-12 02:28:00,36.7,25.3,29.89,NNE,22,0.0,0.0,63,0.00,,,0.04,wxRedirect v1.1,2013-04-12 07:28:00,
2013-04-12 02:34:00,36.3,25.3,29.89,NNE,22,0.0,0.0,64,0.00,,,0.04,wxRedirect v1.1,2013-04-12 07:34:00,
2013-04-12 02:39:00,36.1,25.1,29.90,NNE,22,0.0,0.0,64,0.00,,,0.04,wxRedirect v1.1,2013-04-12 07:39:00,
2013-04-12 02:44:00,36.0,24.9,29.90,NNE,22,0.0,0.0,64,0.00,,,0.04,wxRedirect v1.1,2013-04-12 07:44:00,
2013-04-12 02:50:00,36.0,24.9,29.90,NNE,22,0.0,0.0,64,0.00,,,0.04,wxRedirect v1.1,2013-04-12 07:50:00,
2013-04-12 02:55:00,35.8,24.8,29.90,NNE,22,0.0,0.0,64,0.00,,,0.04,wxRedirect v1.1,2013-04-12 07:55:00,
2013-04-12 03:00:00,35.8,24.8,29.90,NNE,22,0.0,0.0,64,0.00,,,0.04,wxRedirect v1.1,2013-04-12 08:00:00,
2013-04-12 03:06:00,35.6,24.6,29.90,NNE,22,0.0,0.0,64,0.00,,,0.04,wxRedirect v1.1,2013-04-12 08:06:00,
2013-04-12 03:11:00,35.4,24.8,29.90,NNE,22,0.0,0.0,65,0.00,,,0.04,wxRedirect v1.1,2013-04-12 08:11:00,
2013-04-12 03:16:00,35.4,24.8,29.90,NNE,22,0.0,0.0,65,0.00,,,0.04,wxRedirect v1.1,2013-04-12 08:16:00,
2013-04-12 03:21:00,35.4,24.8,29.90,NNE,22,0.0,0.0,65,0.00,,,0.04,wxRedirect v1.1,2013-04-12 08:21:00,
2013-04-12 03:27:00,35.4,24.8,29.90,NNE,22,0.0,0.0,65,0.00,,,0.04,wxRedirect v1.1,2013-04-12 08:27:00,
2013-04-12 03:32:00,35.2,25.0,29.90,NNE,22,0.0,0.0,66,0.00,,,0.04,wxRedirect v1.1,2013-04-12 08:32:00,
2013-04-12 03:37:00,35.2,25.0,29.90,NNE,22,0.0,0.0,66,0.00,,,0.04,wxRedirect v1.1,2013-04-12 08:37:00,
2013-04-12 03:42:00,34.9,24.6,29.90,North,0,0.0,1.3,66,0.00,,,0.04,wxRedirect v1.1,2013-04-12 08:42:00,
2013-04-12 03:48:00,34.7,24.4,29.90,North,0,0.0,1.3,66,0.00,,,0.04,wxRedirect v1.1,2013-04-12 08:48:00,
2013-04-12 03:53:00,34.5,24.3,29.90,NNW,337,1.3,1.3,66,0.00,,,0.04,wxRedirect v1.1,2013-04-12 08:53:00,
2013-04-12 03:59:00,34.3,24.1,29.90,NNW,337,2.7,2.7,66,0.00,,,0.04,wxRedirect v1.1,2013-04-12 08:59:00,
2013-04-12 04:04:00,34.5,24.3,29.90,NNW,337,2.0,3.1,66,0.00,,,0.04,wxRedirect v1.1,2013-04-12 09:04:00,
2013-04-12 04:09:00,34.3,24.4,29.91,NNW,337,0.0,3.6,67,0.00,,,0.04,wxRedirect v1.1,2013-04-12 09:09:00,
2013-04-12 04:14:00,34.3,24.4,29.91,NNW,337,2.5,3.6,67,0.00,,,0.04,wxRedirect v1.1,2013-04-12 09:14:00,
2013-04-12 04:20:00,34.3,24.4,29.91,NNW,337,0.0,2.5,67,0.00,,,0.04,wxRedirect v1.1,2013-04-12 09:20:00,
2013-04-12 04:25:00,34.2,24.3,29.91,NW,315,4.3,4.3,67,0.00,,,0.04,wxRedirect v1.1,2013-04-12 09:25:00,
2013-04-12 04:30:00,34.2,24.6,29.91,NW,315,1.8,4.3,68,0.00,,,0.04,wxRedirect v1.1,2013-04-12 09:30:00,
2013-04-12 04:35:00,34.2,24.6,29.91,NW,315,2.9,4.3,68,0.00,,,0.04,wxRedirect v1.1,2013-04-12 09:35:00,
2013-04-12 04:41:00,34.3,24.8,29.91,NW,315,2.9,3.6,68,0.00,,,0.04,wxRedirect v1.1,2013-04-12 09:41:00,
2013-04-12 04:46:00,34.0,24.4,29.91,NNW,337,0.4,2.9,68,0.00,,,0.04,wxRedirect v1.1,2013-04-12 09:46:00,
2013-04-12 04:52:00,34.0,24.4,29.91,NW,315,0.0,0.9,68,0.00,,,0.04,wxRedirect v1.1,2013-04-12 09:52:00,
2013-04-12 04:57:00,33.8,24.3,29.91,NW,315,0.0,0.9,68,0.00,,,0.04,wxRedirect v1.1,2013-04-12 09:57:00,
2013-04-12 05:02:00,33.6,24.1,29.91,NW,315,0.0,0.0,68,0.00,,,0.04,wxRedirect v1.1,2013-04-12 10:02:00,
2013-04-12 05:07:00,33.6,24.1,29.91,NW,315,0.0,0.0,68,0.00,,,0.04,wxRedirect v1.1,2013-04-12 10:07:00,
2013-04-12 05:13:00,33.6,24.1,29.91,NW,315,0.0,0.0,68,0.00,,,0.04,wxRedirect v1.1,2013-04-12 10:13:00,
2013-04-12 05:18:00,33.4,23.9,29.91,NW,315,0.0,0.0,68,0.00,,,0.04,wxRedirect v1.1,2013-04-12 10:18:00,
2013-04-12 05:23:00,33.4,23.9,29.91,NW,315,0.0,2.0,68,0.00,,,0.04,wxRedirect v1.1,2013-04-12 10:23:00,
2013-04-12 05:29:00,33.3,23.8,29.92,NW,315,0.0,2.0,68,0.00,,,0.04,wxRedirect v1.1,2013-04-12 10:29:00,
2013-04-12 05:34:00,33.3,23.8,29.92,WNW,292,0.0,0.0,68,0.00,,,0.04,wxRedirect v1.1,2013-04-12 10:34:00,
2013-04-12 05:39:00,33.1,23.6,29.92,WNW,292,0.0,0.0,68,0.00,,,0.04,wxRedirect v1.1,2013-04-12 10:39:00,
2013-04-12 05:45:00,32.9,23.5,29.92,NW,315,0.0,1.3,68,0.00,,,0.04,wxRedirect v1.1,2013-04-12 10:45:00,
2013-04-12 05:50:00,32.9,23.5,29.93,NW,315,1.8,1.8,68,0.00,,,0.04,wxRedirect v1.1,2013-04-12 10:50:00,
2013-04-12 05:55:00,32.7,23.3,29.93,WNW,292,1.3,2.7,68,0.00,,,0.04,wxRedirect v1.1,2013-04-12 10:55:00,
2013-04-12 06:01:00,32.9,23.5,29.93,WNW,292,3.8,3.8,68,0.00,,,0.04,wxRedirect v1.1,2013-04-12 11:01:00,
2013-04-12 06:06:00,32.7,23.6,29.93,West,270,0.7,3.8,69,0.00,,,0.04,wxRedirect v1.1,2013-04-12 11:06:00,
2013-04-12 06:11:00,32.9,23.8,29.94,WNW,292,0.0,2.9,69,0.00,,,0.04,wxRedirect v1.1,2013-04-12 11:11:00,
2013-04-12 06:16:00,32.5,23.5,29.94,NW,315,0.0,2.9,69,0.00,,,0.04,wxRedirect v1.1,2013-04-12 11:16:00,
2013-04-12 06:21:00,32.5,23.5,29.94,WNW,292,0.0,2.9,69,0.00,,,0.04,wxRedirect v1.1,2013-04-12 11:21:00,
2013-04-12 06:27:00,32.4,23.3,29.93,NW,315,2.5,2.9,69,0.00,,,0.04,wxRedirect v1.1,2013-04-12 11:27:00,
2013-04-12 06:32:00,32.2,23.2,29.93,NW,315,3.4,3.4,69,0.00,,,0.04,wxRedirect v1.1,2013-04-12 11:32:00,
2013-04-12 06:37:00,32.2,23.2,29.93,NW,315,2.0,3.4,69,0.00,,,0.04,wxRedirect v1.1,2013-04-12 11:37:00,
2013-04-12 06:43:00,32.2,23.2,29.93,NW,315,2.2,3.1,69,0.00,,,0.04,wxRedirect v1.1,2013-04-12 11:43:00,
2013-04-12 06:48:00,32.2,23.2,29.94,NNW,337,2.0,3.1,69,0.00,,,0.04,wxRedirect v1.1,2013-04-12 11:48:00,
2013-04-12 06:53:00,31.8,23.2,29.94,NNW,337,3.8,3.8,70,0.00,,,0.04,wxRedirect v1.1,2013-04-12 11:53:00,
2013-04-12 06:59:00,31.8,23.2,29.95,NNW,337,0.0,3.8,70,0.00,,,0.04,wxRedirect v1.1,2013-04-12 11:59:00,
2013-04-12 07:04:00,31.8,23.2,29.95,WNW,292,0.4,1.8,70,0.00,,,0.04,wxRedirect v1.1,2013-04-12 12:04:00,
2013-04-12 07:09:00,31.8,23.2,29.95,WNW,292,0.0,1.8,70,0.00,,,0.04,wxRedirect v1.1,2013-04-12 12:09:00,
2013-04-12 07:15:00,31.8,23.2,29.96,WNW,292,2.5,2.5,70,0.00,,,0.04,wxRedirect v1.1,2013-04-12 12:15:00,
2013-04-12 07:20:00,31.8,23.2,29.96,West,270,0.0,2.5,70,0.00,,,0.04,wxRedirect v1.1,2013-04-12 12:20:00,
2013-04-12 07:25:00,31.8,23.2,29.96,NW,315,3.4,3.4,70,0.00,,,0.04,wxRedirect v1.1,2013-04-12 12:25:00,
2013-04-12 07:31:00,31.8,23.2,29.96,NW,315,3.4,3.4,70,0.00,,,0.04,wxRedirect v1.1,2013-04-12 12:31:00,
2013-04-12 07:37:00,31.8,23.2,29.96,NW,315,2.2,3.4,70,0.00,,,0.04,wxRedirect v1.1,2013-04-12 12:37:00,
2013-04-12 07:42:00,32.2,23.5,29.96,NW,315,2.7,4.7,70,0.00,,,0.04,wxRedirect v1.1,2013-04-12 12:42:00,
2013-04-12 07:47:00,32.7,24.0,29.96,WNW,292,2.5,4.7,70,0.00,,,0.04,wxRedirect v1.1,2013-04-12 12:47:00,
2013-04-12 07:53:00,33.1,24.3,29.97,WNW,292,0.4,4.3,70,0.00,,,0.04,wxRedirect v1.1,2013-04-12 12:53:00,
2013-04-12 07:58:00,34.0,25.2,29.97,NW,315,3.1,3.6,70,0.00,,,0.04,wxRedirect v1.1,2013-04-12 12:58:00,
2013-04-12 08:03:00,34.3,25.5,29.97,NW,315,4.0,4.0,70,0.00,,,0.04,wxRedirect v1.1,2013-04-12 13:03:00,
2013-04-12 08:09:00,35.4,26.2,29.97,WNW,292,3.8,5.4,69,0.00,,,0.04,wxRedirect v1.1,2013-04-12 13:09:00,
2013-04-12 08:14:00,36.1,26.6,29.98,West,270,4.3,5.4,68,0.00,,,0.04,wxRedirect v1.1,2013-04-12 13:14:00,
2013-04-12 08:19:00,37.0,27.5,29.98,West,270,1.8,4.7,68,0.00,,,0.04,wxRedirect v1.1,2013-04-12 13:19:00,
2013-04-12 08:25:00,38.5,28.0,29.98,WNW,292,7.2,7.2,66,0.00,,,0.04,wxRedirect v1.1,2013-04-12 13:25:00,
2013-04-12 08:30:00,39.9,29.0,29.98,West,270,4.7,7.2,65,0.00,,,0.04,wxRedirect v1.1,2013-04-12 13:30:00,
2013-04-12 08:35:00,40.8,29.6,29.98,WNW,292,6.7,6.7,64,0.00,,,0.04,wxRedirect v1.1,2013-04-12 13:35:00,
2013-04-12 08:41:00,41.5,29.5,29.98,NW,315,6.5,6.7,62,0.00,,,0.04,wxRedirect v1.1,2013-04-12 13:41:00,
2013-04-12 08:46:00,42.1,30.0,29.98,NNW,337,6.9,6.9,62,0.00,,,0.04,wxRedirect v1.1,2013-04-12 13:46:00,
2013-04-12 08:51:00,42.8,30.2,29.98,NW,315,4.9,10.1,61,0.00,,,0.04,wxRedirect v1.1,2013-04-12 13:51:00,
2013-04-12 08:56:00,43.3,30.4,29.98,WNW,292,8.7,10.1,60,0.00,,,0.04,wxRedirect v1.1,2013-04-12 13:56:00,
2013-04-12 09:01:00,43.9,30.5,29.99,WNW,292,4.5,8.7,59,0.00,,,0.02,wxRedirect v1.1,2013-04-12 14:01:00,
2013-04-12 09:06:00,44.4,31.0,29.99,NW,315,7.6,11.6,59,0.00,,,0.02,wxRedirect v1.1,2013-04-12 14:06:00,
2013-04-12 09:12:00,45.1,31.2,29.99,WNW,292,6.5,11.6,58,0.00,,,0.02,wxRedirect v1.1,2013-04-12 14:12:00,
2013-04-12 09:17:00,46.0,31.6,29.99,NW,315,8.1,8.1,57,0.00,,,0.02,wxRedirect v1.1,2013-04-12 14:17:00,
2013-04-12 09:22:00,46.2,31.3,30.00,NW,315,8.1,9.4,56,0.00,,,0.02,wxRedirect v1.1,2013-04-12 14:22:00,
2013-04-12 09:27:00,46.6,31.2,29.99,NNW,337,9.8,14.3,55,0.00,,,0.02,wxRedirect v1.1,2013-04-12 14:27:00,
2013-04-12 09:33:00,46.9,31.5,30.00,NW,315,0.9,14.3,55,0.00,,,0.02,wxRedirect v1.1,2013-04-12 14:33:00,
2013-04-12 09:38:00,47.5,32.0,30.00,NW,315,9.6,12.5,55,0.00,,,0.02,wxRedirect v1.1,2013-04-12 14:38:00,
2013-04-12 09:43:00,48.0,31.6,30.00,NNW,337,9.4,9.6,53,0.00,,,0.02,wxRedirect v1.1,2013-04-12 14:43:00,
2013-04-12 09:49:00,48.2,31.3,30.00,NNE,22,7.4,11.9,52,0.00,,,0.02,wxRedirect v1.1,2013-04-12 14:49:00,
2013-04-12 09:54:00,48.6,31.7,30.00,NNW,337,8.5,11.9,52,0.00,,,0.02,wxRedirect v1.1,2013-04-12 14:54:00,
2013-04-12 09:59:00,48.9,31.6,30.00,NNW,337,3.8,14.8,51,0.00,,,0.02,wxRedirect v1.1,2013-04-12 14:59:00,
2013-04-12 10:05:00,49.3,31.9,30.00,NW,315,7.2,14.8,51,0.00,,,0.02,wxRedirect v1.1,2013-04-12 15:05:00,
2013-04-12 10:10:00,50.2,33.2,30.00,WNW,292,2.7,11.4,52,0.00,,,0.02,wxRedirect v1.1,2013-04-12 15:10:00,
2013-04-12 10:15:00,50.7,33.3,30.00,North,0,3.8,11.4,51,0.00,,,0.02,wxRedirect v1.1,2013-04-12 15:15:00,
2013-04-12 10:21:00,51.6,33.6,30.01,NNW,337,5.4,12.1,50,0.00,,,0.02,wxRedirect v1.1,2013-04-12 15:21:00,
2013-04-12 10:27:00,52.0,33.4,30.01,North,0,16.6,16.6,49,0.00,,,0.02,wxRedirect v1.1,2013-04-12 15:27:00,
2013-04-12 10:32:00,52.3,33.7,30.01,NNW,337,6.7,16.6,49,0.00,,,0.02,wxRedirect v1.1,2013-04-12 15:32:00,
2013-04-12 10:37:00,52.7,34.1,30.01,NNE,22,14.8,14.8,49,0.00,,,0.02,wxRedirect v1.1,2013-04-12 15:37:00,
2013-04-12 10:43:00,52.7,32.9,30.01,North,0,10.1,14.8,47,0.00,,,0.02,wxRedirect v1.1,2013-04-12 15:43:00,
2013-04-12 10:48:00,52.9,33.1,30.01,NNW,337,6.3,13.6,47,0.00,,,0.02,wxRedirect v1.1,2013-04-12 15:48:00,
2013-04-12 10:53:00,52.9,33.7,30.01,North,0,7.2,7.2,48,0.00,,,0.02,wxRedirect v1.1,2013-04-12 15:53:00,
2013-04-12 10:58:00,52.9,33.1,30.02,North,0,6.0,13.6,47,0.00,,,0.02,wxRedirect v1.1,2013-04-12 15:58:00,
2013-04-12 11:04:00,53.2,33.4,30.02,NNW,337,11.0,13.6,47,-99.99,,,0.00,wxRedirect v1.1,2013-04-12 16:04:00,
2013-04-12 11:09:00,53.6,33.7,30.02,NNW,337,6.9,11.0,47,-99.99,,,0.00,wxRedirect v1.1,2013-04-12 16:09:00,
2013-04-12 11:14:00,54.0,34.1,30.02,North,0,6.7,11.0,47,-99.99,,,0.00,wxRedirect v1.1,2013-04-12 16:14:00,
2013-04-12 11:20:00,54.3,34.4,30.02,NNE,22,4.3,13.6,47,-99.99,,,0.00,wxRedirect v1.1,2013-04-12 16:20:00,
2013-04-12 11:25:00,54.7,34.7,30.01,NW,315,6.0,13.6,47,-99.99,,,0.00,wxRedirect v1.1,2013-04-12 16:25:00,
2013-04-12 11:30:00,55.0,35.0,30.02,NNW,337,7.8,9.2,47,-99.99,,,0.00,wxRedirect v1.1,2013-04-12 16:30:00,
2013-04-12 11:36:00,55.0,35.0,30.02,NW,315,5.1,11.9,47,-99.99,,,0.00,wxRedirect v1.1,2013-04-12 16:36:00,
2013-04-12 11:41:00,55.2,35.2,30.02,NNW,337,8.9,11.9,47,-99.99,,,0.00,wxRedirect v1.1,2013-04-12 16:41:00,
2013-04-12 11:46:00,55.2,35.2,30.02,North,0,6.5,9.4,46,-99.99,,,0.00,wxRedirect v1.1,2013-04-12 16:46:00,
2013-04-12 11:52:00,55.4,35.4,30.02,WNW,292,8.5,8.5,47,-99.99,,,0.00,wxRedirect v1.1,2013-04-12 16:52:00,
2013-04-12 11:57:00,55.6,35.5,30.02,NNW,337,10.7,11.2,47,-99.99,,,0.00,wxRedirect v1.1,2013-04-12 16:57:00,
2013-04-12 12:02:00,55.6,35.5,30.02,NNW,337,4.0,11.2,47,-99.99,,,0.00,wxRedirect v1.1,2013-04-12 17:02:00,
2013-04-12 12:08:00,55.9,35.9,30.02,North,0,0.4,10.7,47,-99.99,,,0.00,wxRedirect v1.1,2013-04-12 17:08:00,
2013-04-12 12:13:00,56.1,36.1,30.02,NNE,22,2.5,8.9,47,-99.99,,,0.00,wxRedirect v1.1,2013-04-12 17:13:00,
2013-04-12 12:18:00,56.3,36.2,30.02,North,-999,-999.0,-999.0,47,-99.99,,,0.00,wxRedirect v1.1,2013-04-12 17:18:00,
2013-04-12 12:23:00,56.3,35.7,30.01,NNW,337,4.5,4.5,46,-99.99,,,0.00,wxRedirect v1.1,2013-04-12 17:23:00,
2013-04-12 12:29:00,56.5,35.8,30.01,NNW,337,2.9,4.5,46,-99.99,,,0.00,wxRedirect v1.1,2013-04-12 17:29:00,
2013-04-12 12:34:00,57.0,36.4,30.01,North,0,10.1,11.0,46,-99.99,,,0.00,wxRedirect v1.1,2013-04-12 17:34:00,
2013-04-12 12:40:00,57.0,36.4,30.01,North,0,6.0,11.0,46,-99.99,,,0.00,wxRedirect v1.1,2013-04-12 17:40:00,
2013-04-12 12:45:00,57.0,35.8,30.01,NNE,22,5.1,10.1,45,-99.99,,,0.00,wxRedirect v1.1,2013-04-12 17:45:00,
2013-04-12 12:51:00,57.0,35.8,30.01,NW,315,3.1,5.1,45,-99.99,,,0.00,wxRedirect v1.1,2013-04-12 17:51:00,
2013-04-12 12:56:00,57.0,35.8,30.01,NW,315,3.6,9.2,45,-99.99,,,0.00,wxRedirect v1.1,2013-04-12 17:56:00,
2013-04-12 13:02:00,57.2,36.5,30.01,NNW,337,13.0,14.5,46,-99.99,,,0.00,wxRedirect v1.1,2013-04-12 18:02:00,
2013-04-12 13:07:00,57.0,35.8,30.01,NW,315,10.3,14.5,45,-99.99,,,0.00,wxRedirect v1.1,2013-04-12 18:07:00,
2013-04-12 13:13:00,57.0,35.8,30.01,NE,45,3.4,13.0,45,-99.99,,,0.00,wxRedirect v1.1,2013-04-12 18:13:00,
2013-04-12 13:18:00,57.0,35.8,30.01,North,0,4.3,10.3,45,-99.99,,,0.00,wxRedirect v1.1,2013-04-12 18:18:00,
2013-04-12 13:24:00,57.7,36.4,30.02,WNW,292,4.5,7.6,45,-99.99,,,0.00,wxRedirect v1.1,2013-04-12 18:24:00,
2013-04-12 13:29:00,57.9,37.2,30.02,North,0,2.5,7.6,46,-99.99,,,0.00,wxRedirect v1.1,2013-04-12 18:29:00,
2013-04-12 14:26:00,59.5,38.1,30.01,NW,315,3.8,4.0,45,-99.99,,,0.00,wxRedirect v1.1,2013-04-12 19:26:00,
2013-04-12 14:27:00,59.5,38.1,30.01,North,0,5.1,5.1,45,-99.99,,,0.00,wxRedirect v1.1,2013-04-12 19:27:00,
2013-04-12 14:28:00,59.5,38.1,30.01,North,0,5.1,5.1,45,-99.99,,,0.00,wxRedirect v1.1,2013-04-12 19:28:00,
2013-04-12 14:34:00,59.7,38.2,30.01,North,0,6.5,6.5,45,-99.99,,,0.00,wxRedirect v1.1,2013-04-12 19:34:00,
2013-04-12 14:39:00,59.7,38.2,30.01,NW,315,0.0,6.5,45,-99.99,,,0.00,wxRedirect v1.1,2013-04-12 19:39:00,
2013-04-12 14:44:00,59.7,38.2,30.01,NW,315,0.0,6.5,45,-99.99,,,0.00,wxRedirect v1.1,2013-04-12 19:44:00,
2013-04-12 14:49:00,59.9,38.4,30.01,NW,315,0.0,0.0,45,-99.99,,,0.00,wxRedirect v1.1,2013-04-12 19:49:00,
2013-04-12 14:55:00,60.1,38.6,30.01,WNW,292,0.2,0.2,45,-99.99,,,0.00,wxRedirect v1.1,2013-04-12 19:55:00,
2013-04-12 15:00:00,60.1,38.6,30.01,West,270,6.0,6.0,45,-99.99,,,0.00,wxRedirect v1.1,2013-04-12 20:00:00,
2013-04-12 15:05:00,60.4,38.7,30.01,West,270,6.0,6.0,45,-99.99,,,0.00,wxRedirect v1.1,2013-04-12 20:05:00,
2013-04-12 15:11:00,60.4,38.9,30.00,West,270,6.0,6.0,45,-99.99,,,0.00,wxRedirect v1.1,2013-04-12 20:11:00,
2013-04-12 15:17:00,60.4,38.3,30.00,WNW,292,4.0,6.0,44,-99.99,,,0.00,wxRedirect v1.1,2013-04-12 20:17:00,
2013-04-12 15:22:00,60.4,38.3,30.00,West,270,2.7,6.0,44,-99.99,,,0.00,wxRedirect v1.1,2013-04-12 20:22:00,
2013-04-12 15:27:00,60.4,38.3,29.99,WSW,247,3.8,3.8,44,-99.99,,,0.00,wxRedirect v1.1,2013-04-12 20:27:00,
2013-04-12 15:33:00,60.4,38.3,29.99,West,270,2.2,3.8,44,-99.99,,,0.00,wxRedirect v1.1,2013-04-12 20:33:00,
2013-04-12 15:38:00,60.4,38.3,29.99,NW,315,0.0,3.8,44,-99.99,,,0.00,wxRedirect v1.1,2013-04-12 20:38:00,
2013-04-12 15:43:00,60.4,38.3,29.99,NW,315,0.0,2.2,44,-99.99,,,0.00,wxRedirect v1.1,2013-04-12 20:43:00,
2013-04-12 15:49:00,60.1,38.0,29.99,WNW,292,1.1,3.1,44,-99.99,,,0.00,wxRedirect v1.1,2013-04-12 20:49:00,
2013-04-12 15:54:00,59.9,37.8,29.99,NW,315,0.0,3.1,44,-99.99,,,0.00,wxRedirect v1.1,2013-04-12 20:54:00,
2013-04-12 15:59:00,59.9,37.8,29.98,WNW,292,3.8,3.8,44,-99.99,,,0.00,wxRedirect v1.1,2013-04-12 20:59:00,
2013-04-12 16:05:00,59.9,37.8,29.98,SSW,202,3.1,3.8,44,-99.99,,,0.00,wxRedirect v1.1,2013-04-12 21:05:00,
2013-04-12 16:10:00,59.9,37.8,29.98,SW,225,3.1,3.8,44,-99.99,,,0.00,wxRedirect v1.1,2013-04-12 21:10:00,
2013-04-12 16:16:00,60.1,37.4,29.98,WSW,247,1.6,3.4,43,-99.99,,,0.00,wxRedirect v1.1,2013-04-12 21:16:00,
2013-04-12 16:21:00,60.1,38.0,29.97,West,270,5.1,5.1,44,-99.99,,,0.00,wxRedirect v1.1,2013-04-12 21:21:00,
2013-04-12 16:26:00,60.1,38.0,29.97,West,270,6.9,6.9,44,-99.99,,,0.00,wxRedirect v1.1,2013-04-12 21:26:00,
2013-04-12 16:31:00,60.1,38.0,29.97,WSW,247,6.3,6.9,44,-99.99,,,0.00,wxRedirect v1.1,2013-04-12 21:31:00,
2013-04-12 16:37:00,60.1,38.6,29.96,WSW,247,3.1,6.7,45,-99.99,,,0.00,wxRedirect v1.1,2013-04-12 21:37:00,
2013-04-12 16:42:00,60.6,39.0,29.96,West,270,0.7,6.3,45,-99.99,,,0.00,wxRedirect v1.1,2013-04-12 21:42:00,
2013-04-12 16:47:00,61.2,38.9,29.96,WNW,292,4.3,6.5,44,-99.99,,,0.00,wxRedirect v1.1,2013-04-12 21:47:00,
2013-04-12 16:52:00,61.3,39.1,29.96,WNW,292,4.0,6.5,44,-99.99,,,0.00,wxRedirect v1.1,2013-04-12 21:52:00,
2013-04-12 16:57:00,61.5,38.7,29.96,North,0,3.8,4.9,43,-99.99,,,0.00,wxRedirect v1.1,2013-04-12 21:57:00,
2013-04-12 17:03:00,61.5,38.7,29.96,NW,315,5.8,5.8,43,-99.99,,,0.00,wxRedirect v1.1,2013-04-12 22:03:00,
2013-04-12 17:08:00,61.5,38.7,29.96,North,-999,-999.0,-999.0,43,-99.99,,,0.00,wxRedirect v1.1,2013-04-12 22:08:00,
2013-04-12 17:14:00,61.3,38.5,29.96,WNW,292,4.3,5.4,43,-99.99,,,0.00,wxRedirect v1.1,2013-04-12 22:14:00,
2013-04-12 17:19:00,61.3,38.5,29.96,West,270,0.0,5.4,43,-99.99,,,0.00,wxRedirect v1.1,2013-04-12 22:19:00,
2013-04-12 17:24:00,61.3,38.5,29.96,West,270,0.0,0.0,43,-99.99,,,0.00,wxRedirect v1.1,2013-04-12 22:24:00,
2013-04-12 17:29:00,61.3,38.5,29.96,West,270,0.0,0.0,43,-99.99,,,0.00,wxRedirect v1.1,2013-04-12 22:29:00,
2013-04-12 17:35:00,61.3,38.0,29.96,NNW,337,3.6,3.6,42,-99.99,,,0.00,wxRedirect v1.1,2013-04-12 22:35:00,
2013-04-12 17:40:00,60.4,37.7,29.95,North,0,0.0,3.6,43,-99.99,,,0.00,wxRedirect v1.1,2013-04-12 22:40:00,
2013-04-12 17:45:00,60.3,37.6,29.96,NNW,337,6.3,6.3,43,-99.99,,,0.00,wxRedirect v1.1,2013-04-12 22:45:00,
2013-04-12 17:51:00,60.1,37.4,29.96,NW,315,0.7,6.3,43,-99.99,,,0.00,wxRedirect v1.1,2013-04-12 22:51:00,
2013-04-12 17:56:00,60.1,37.8,29.96,NNW,337,8.5,8.5,43,-99.99,,,0.00,wxRedirect v1.1,2013-04-12 22:56:00,
2013-04-12 18:01:00,60.1,37.8,29.96,NNW,337,8.5,8.5,43,0.00,,,0.00,wxRedirect v1.1,2013-04-12 23:01:00,
2013-04-12 18:07:00,59.9,37.2,29.96,NNW,337,8.5,8.5,43,0.00,,,0.00,wxRedirect v1.1,2013-04-12 23:07:00,
2013-04-12 18:13:00,59.5,36.9,29.96,North,0,0.0,8.5,43,-99.99,,,0.00,wxRedirect v1.1,2013-04-12 23:13:00,
2013-04-12 18:18:00,59.5,36.9,29.96,North,0,0.0,4.9,43,-99.99,,,0.00,wxRedirect v1.1,2013-04-12 23:18:00,
2013-04-12 18:23:00,59.5,36.9,29.95,NNW,337,0.0,0.0,43,-99.99,,,0.00,wxRedirect v1.1,2013-04-12 23:23:00,
2013-04-12 18:28:00,59.7,37.1,29.96,NNW,337,0.0,0.0,43,-99.99,,,0.00,wxRedirect v1.1,2013-04-12 23:28:00,
2013-04-12 18:34:00,59.7,37.1,29.96,NNW,337,0.0,0.0,43,-99.99,,,0.00,wxRedirect v1.1,2013-04-12 23:34:00,
2013-04-12 18:39:00,59.7,37.1,29.96,NNW,337,0.0,0.0,43,-99.99,,,0.00,wxRedirect v1.1,2013-04-12 23:39:00,
2013-04-12 18:44:00,59.5,36.9,29.96,NNW,337,0.0,0.0,43,-99.99,,,0.00,wxRedirect v1.1,2013-04-12 23:44:00,
2013-04-12 18:49:00,59.0,37.0,29.96,NW,315,0.0,0.0,44,-99.99,,,0.00,wxRedirect v1.1,2013-04-12 23:49:00,
2013-04-12 18:54:00,58.8,36.8,29.96,North,-999,-999.0,-999.0,44,-99.99,,,0.00,wxRedirect v1.1,2013-04-12 23:54:00,
2013-04-12 19:00:00,58.8,36.8,29.96,North,-999,-999.0,-999.0,44,-99.99,,,0.00,wxRedirect v1.1,2013-04-13 00:00:00,
2013-04-12 19:05:00,58.8,36.8,29.96,SW,225,0.0,0.0,44,-99.99,,,0.00,wxRedirect v1.1,2013-04-13 00:05:00,
2013-04-12 19:10:00,58.8,36.8,29.96,North,0,2.2,2.2,44,-99.99,,,0.00,wxRedirect v1.1,2013-04-13 00:10:00,
2013-04-12 19:17:00,59.7,38.2,29.96,NNE,22,0.0,2.2,45,-99.99,,,0.00,wxRedirect v1.1,2013-04-13 00:17:00,
2013-04-12 19:22:00,59.5,37.5,29.96,NNE,22,0.0,0.0,44,-99.99,,,0.00,wxRedirect v1.1,2013-04-13 00:22:00,
2013-04-12 19:27:00,60.1,38.6,29.96,NNE,22,0.0,0.0,45,-99.99,,,0.00,wxRedirect v1.1,2013-04-13 00:27:00,
2013-04-12 19:33:00,60.6,39.0,29.96,NNE,22,0.0,0.0,45,-99.99,,,0.00,wxRedirect v1.1,2013-04-13 00:33:00,
2013-04-12 19:38:00,60.8,39.2,29.95,NNE,22,0.0,0.0,45,-99.99,,,0.00,wxRedirect v1.1,2013-04-13 00:38:00,
2013-04-12 19:43:00,61.2,38.9,29.95,NNE,22,0.0,0.0,44,-99.99,,,0.00,wxRedirect v1.1,2013-04-13 00:43:00,
2013-04-12 19:48:00,61.2,38.9,29.95,NNE,22,0.0,0.0,44,-99.99,,,0.00,wxRedirect v1.1,2013-04-13 00:48:00,
2013-04-12 19:53:00,61.2,38.9,29.95,NNE,22,0.0,0.0,44,-99.99,,,0.00,wxRedirect v1.1,2013-04-13 00:53:00,
2013-04-12 19:59:00,61.2,38.9,29.95,NNE,22,0.0,0.0,44,-99.99,,,0.00,wxRedirect v1.1,2013-04-13 00:59:00,
2013-04-12 20:04:00,60.6,38.5,29.95,NNE,22,0.0,0.0,44,-99.99,,,0.00,wxRedirect v1.1,2013-04-13 01:04:00,
2013-04-12 20:09:00,60.4,38.3,29.95,NNE,22,0.0,0.0,44,-99.99,,,0.00,wxRedirect v1.1,2013-04-13 01:09:00,
2013-04-12 20:14:00,59.4,37.3,29.95,NNE,22,0.0,0.0,46,-99.99,,,0.00,wxRedirect v1.1,2013-04-13 01:14:00,
2013-04-12 20:20:00,58.8,36.8,29.95,NNE,22,0.0,0.0,44,-99.99,,,0.00,wxRedirect v1.1,2013-04-13 01:20:00,
2013-04-12 20:25:00,58.5,36.5,29.96,NNE,22,0.0,0.0,44,-99.99,,,0.00,wxRedirect v1.1,2013-04-13 01:25:00,
2013-04-12 20:31:00,58.1,36.2,29.96,NNE,22,0.0,0.0,44,-99.99,,,0.00,wxRedirect v1.1,2013-04-13 01:31:00,
2013-04-12 20:36:00,57.6,36.3,29.96,NNE,22,0.0,0.0,45,-99.99,,,0.00,wxRedirect v1.1,2013-04-13 01:36:00,
2013-04-12 20:41:00,57.4,36.7,29.96,NNE,22,0.0,0.0,46,-99.99,,,0.00,wxRedirect v1.1,2013-04-13 01:41:00,
2013-04-12 20:47:00,57.0,36.7,29.96,NNE,22,0.0,0.0,46,-99.99,,,0.00,wxRedirect v1.1,2013-04-13 01:47:00,
2013-04-12 20:52:00,57.0,36.4,29.96,NNE,22,0.0,0.0,46,-99.99,,,0.00,wxRedirect v1.1,2013-04-13 01:52:00,
2013-04-12 20:57:00,56.5,35.8,29.96,NNE,22,0.0,0.0,46,-99.99,,,0.00,wxRedirect v1.1,2013-04-13 01:57:00,
2013-04-12 21:02:00,56.3,36.2,29.97,NNE,22,0.0,0.0,47,-99.99,,,0.00,wxRedirect v1.1,2013-04-13 02:02:00,
2013-04-12 21:07:00,56.1,36.6,29.97,NNE,22,0.0,0.0,48,-99.99,,,0.00,wxRedirect v1.1,2013-04-13 02:07:00,
2013-04-12 21:13:00,55.9,36.4,29.98,NNE,22,0.0,0.0,48,-99.99,,,0.00,wxRedirect v1.1,2013-04-13 02:13:00,
2013-04-12 21:18:00,55.2,35.8,29.98,NNE,22,0.0,0.0,48,-99.99,,,0.00,wxRedirect v1.1,2013-04-13 02:18:00,
2013-04-12 21:23:00,55.0,35.6,29.99,NNE,22,0.0,0.0,48,-99.99,,,0.00,wxRedirect v1.1,2013-04-13 02:23:00,
2013-04-12 21:29:00,54.7,35.3,29.99,NNE,22,0.0,0.0,48,-99.99,,,0.00,wxRedirect v1.1,2013-04-13 02:29:00,
2013-04-12 21:34:00,54.3,35.5,29.99,NNE,22,0.0,0.0,49,-99.99,,,0.00,wxRedirect v1.1,2013-04-13 02:34:00,
2013-04-12 21:39:00,54.1,35.3,29.99,NNE,22,0.0,0.0,49,-99.99,,,0.00,wxRedirect v1.1,2013-04-13 02:39:00,
2013-04-12 21:44:00,54.0,35.2,30.00,NNE,22,0.0,0.0,49,-99.99,,,0.00,wxRedirect v1.1,2013-04-13 02:44:00,
2013-04-12 21:50:00,53.8,35.0,30.01,NNE,22,0.0,0.0,49,-99.99,,,0.00,wxRedirect v1.1,2013-04-13 02:50:00,
2013-04-12 21:55:00,53.4,35.3,30.01,NNE,22,0.0,0.0,50,-99.99,,,0.00,wxRedirect v1.1,2013-04-13 02:55:00,
2013-04-12 22:00:00,53.4,35.3,30.01,NNE,22,0.0,0.0,50,-99.99,,,0.00,wxRedirect v1.1,2013-04-13 03:00:00,
2013-04-12 22:05:00,53.1,34.9,30.01,NE,45,0.0,0.0,50,-99.99,,,0.00,wxRedirect v1.1,2013-04-13 03:05:00,
2013-04-12 22:10:00,52.9,35.2,30.01,NE,45,0.0,0.0,51,-99.99,,,0.00,wxRedirect v1.1,2013-04-13 03:10:00,
2013-04-12 22:16:00,52.5,34.9,30.01,NE,45,0.0,0.0,51,-99.99,,,0.00,wxRedirect v1.1,2013-04-13 03:16:00,
2013-04-12 22:21:00,52.3,34.7,30.01,NE,45,0.0,0.0,51,-99.99,,,0.00,wxRedirect v1.1,2013-04-13 03:21:00,
2013-04-12 22:27:00,52.0,34.9,30.01,NE,45,0.0,0.0,52,-99.99,,,0.00,wxRedirect v1.1,2013-04-13 03:27:00,
2013-04-12 22:32:00,51.8,34.7,30.01,NE,45,0.0,0.0,52,-99.99,,,0.00,wxRedirect v1.1,2013-04-13 03:32:00,
2013-04-12 22:37:00,51.6,34.5,30.02,NE,45,0.0,0.0,52,-99.99,,,0.00,wxRedirect v1.1,2013-04-13 03:37:00,
2013-04-12 22:43:00,51.4,34.8,30.02,NE,45,0.0,0.0,53,-99.99,,,0.00,wxRedirect v1.1,2013-04-13 03:43:00,
2013-04-12 22:48:00,51.3,34.7,30.02,NE,45,0.0,0.0,53,-99.99,,,0.00,wxRedirect v1.1,2013-04-13 03:48:00,
2013-04-12 22:53:00,50.9,34.8,30.02,NE,45,0.0,0.0,54,-99.99,,,0.00,wxRedirect v1.1,2013-04-13 03:53:00,
2013-04-12 22:59:00,50.7,34.6,30.02,NE,45,5.8,5.8,54,-99.99,,,0.00,wxRedirect v1.1,2013-04-13 03:59:00,
2013-04-12 23:00:00,50.7,34.6,30.02,NE,45,5.8,5.8,54,-99.99,,,0.00,wxRedirect v1.1,2013-04-13 04:00:00,
2013-04-12 23:01:00,50.7,34.6,30.02,NE,45,0.0,5.8,54,-99.99,,,0.00,wxRedirect v1.1,2013-04-13 04:01:00,
2013-04-12 23:06:00,50.5,34.5,30.02,NE,45,1.6,5.8,54,-99.99,,,0.00,wxRedirect v1.1,2013-04-13 04:06:00,
2013-04-12 23:11:00,50.2,34.1,30.02,NE,45,0.0,1.6,54,-99.99,,,0.00,wxRedirect v1.1,2013-04-13 04:11:00,
2013-04-12 23:16:00,49.8,34.3,30.02,ENE,67,0.0,1.6,55,-99.99,,,0.00,wxRedirect v1.1,2013-04-13 04:16:00,
2013-04-12 23:22:00,49.8,34.3,30.02,ENE,67,0.0,0.0,55,-99.99,,,0.00,wxRedirect v1.1,2013-04-13 04:22:00,
2013-04-12 23:27:00,49.6,34.1,30.02,ENE,67,0.0,0.0,55,-99.99,,,0.00,wxRedirect v1.1,2013-04-13 04:27:00,
2013-04-12 23:32:00,49.6,34.1,30.04,ENE,67,0.0,0.0,55,-99.99,,,0.00,wxRedirect v1.1,2013-04-13 04:32:00,
2013-04-12 23:38:00,49.3,33.7,30.03,ENE,67,0.0,0.0,55,-99.99,,,0.00,wxRedirect v1.1,2013-04-13 04:38:00,
2013-04-12 23:43:00,49.3,34.2,30.04,ENE,67,0.0,0.0,56,-99.99,,,0.00,wxRedirect v1.1,2013-04-13 04:43:00,
2013-04-12 23:48:00,49.1,34.0,30.03,ENE,67,0.0,0.0,56,-99.99,,,0.00,wxRedirect v1.1,2013-04-13 04:48:00,
2013-04-12 23:54:00,49.1,34.0,30.03,ENE,67,0.0,0.0,56,-99.99,,,0.00,wxRedirect v1.1,2013-04-13 04:54:00,
2013-04-12 23:59:00,48.7,34.1,30.03,ENE,67,0.0,0.0,57,-99.99,,,0.00,wxRedirect v1.1,2013-04-13 04:59:00,